sensor_id;sensor_type;location;lat;lon;timestamp;temperature;humidity
24226;DHT22;51462;51.422;5.514;2022-12-10T00:01:48;0.20;99.90
24226;DHT22;51462;51.422;5.514;2022-12-10T00:04:14;0.10;99.90
24226;DHT22;51462;51.422;5.514;2022-12-10T00:06:41;0.10;99.90
24226;DHT22;51462;51.422;5.514;2022-12-10T00:09:12;0.10;99.90
24226;DHT22;51462;51.422;5.514;2022-12-10T00:11:39;0.10;99.90
24226;DHT22;51462;51.422;5.514;2022-12-10T00:14:05;0.10;99.90
24226;DHT22;51462;51.422;5.514;2022-12-10T00:16:32;0.10;99.90
24226;DHT22;51462;51.422;5.514;2022-12-10T00:18:59;0.00;99.90
24226;DHT22;51462;51.422;5.514;2022-12-10T00:21:28;0.00;99.90
24226;DHT22;51462;51.422;5.514;2022-12-10T00:23:54;-0.10;99.90
24226;DHT22;51462;51.422;5.514;2022-12-10T00:26:24;0.00;99.90
24226;DHT22;51462;51.422;5.514;2022-12-10T00:28:51;-0.10;99.90
24226;DHT22;51462;51.422;5.514;2022-12-10T00:31:25;-0.20;99.90
24226;DHT22;51462;51.422;5.514;2022-12-10T00:33:53;-0.10;99.90
24226;DHT22;51462;51.422;5.514;2022-12-10T00:36:25;-0.10;99.90
24226;DHT22;51462;51.422;5.514;2022-12-10T00:38:51;-0.10;99.90
24226;DHT22;51462;51.422;5.514;2022-12-10T00:41:17;-0.10;99.90
24226;DHT22;51462;51.422;5.514;2022-12-10T00:43:43;-0.10;99.90
24226;DHT22;51462;51.422;5.514;2022-12-10T00:46:10;-0.20;99.90
24226;DHT22;51462;51.422;5.514;2022-12-10T00:48:36;-0.20;99.90
24226;DHT22;51462;51.422;5.514;2022-12-10T00:51:03;-0.20;99.90
24226;DHT22;51462;51.422;5.514;2022-12-10T00:53:30;-0.20;99.90
24226;DHT22;51462;51.422;5.514;2022-12-10T00:55:57;-0.10;99.90
24226;DHT22;51462;51.422;5.514;2022-12-10T00:58:23;0.00;99.90
24226;DHT22;51462;51.422;5.514;2022-12-10T01:00:51;-0.20;99.90
24226;DHT22;51462;51.422;5.514;2022-12-10T01:03:17;-0.30;99.90
24226;DHT22;51462;51.422;5.514;2022-12-10T01:05:43;-0.20;99.90
24226;DHT22;51462;51.422;5.514;2022-12-10T01:08:08;-0.20;99.90
24226;DHT22;51462;51.422;5.514;2022-12-10T01:10:34;-0.30;99.90
24226;DHT22;51462;51.422;5.514;2022-12-10T01:13:00;-0.20;99.90
24226;DHT22;51462;51.422;5.514;2022-12-10T01:15:26;-0.30;99.90
24226;DHT22;51462;51.422;5.514;2022-12-10T01:17:51;-0.30;99.90
24226;DHT22;51462;51.422;5.514;2022-12-10T01:20:17;-0.30;99.90
24226;DHT22;51462;51.422;5.514;2022-12-10T01:22:43;-0.10;99.90
24226;DHT22;51462;51.422;5.514;2022-12-10T01:25:08;-0.10;99.90
24226;DHT22;51462;51.422;5.514;2022-12-10T01:27:34;0.00;99.90
24226;DHT22;51462;51.422;5.514;2022-12-10T01:29:59;-0.30;99.90
24226;DHT22;51462;51.422;5.514;2022-12-10T01:32:25;-0.40;99.90
24226;DHT22;51462;51.422;5.514;2022-12-10T01:34:51;-0.30;99.90
24226;DHT22;51462;51.422;5.514;2022-12-10T01:37:16;-0.20;99.90
24226;DHT22;51462;51.422;5.514;2022-12-10T01:39:42;-0.10;99.90
24226;DHT22;51462;51.422;5.514;2022-12-10T01:42:12;0.00;99.90
24226;DHT22;51462;51.422;5.514;2022-12-10T01:47:06;0.10;99.90
24226;DHT22;51462;51.422;5.514;2022-12-10T01:49:35;-0.20;99.90
24226;DHT22;51462;51.422;5.514;2022-12-10T01:52:03;-0.10;99.90
24226;DHT22;51462;51.422;5.514;2022-12-10T01:54:33;0.40;99.90
24226;DHT22;51462;51.422;5.514;2022-12-10T01:57:22;0.00;99.90
24226;DHT22;51462;51.422;5.514;2022-12-10T01:59:52;-0.10;99.90
24226;DHT22;51462;51.422;5.514;2022-12-10T02:02:41;0.00;99.90
24226;DHT22;51462;51.422;5.514;2022-12-10T02:08:06;0.30;99.90
24226;DHT22;51462;51.422;5.514;2022-12-10T02:16:16;0.30;99.90
24226;DHT22;51462;51.422;5.514;2022-12-10T02:18:50;0.40;99.90
24226;DHT22;51462;51.422;5.514;2022-12-10T02:21:28;0.30;99.90
24226;DHT22;51462;51.422;5.514;2022-12-10T02:23:59;1.20;99.90
24226;DHT22;51462;51.422;5.514;2022-12-10T02:29:18;0.70;99.90
24226;DHT22;51462;51.422;5.514;2022-12-10T02:32:00;0.30;99.90
24226;DHT22;51462;51.422;5.514;2022-12-10T02:34:30;0.50;99.90
24226;DHT22;51462;51.422;5.514;2022-12-10T02:37:03;0.20;99.90
24226;DHT22;51462;51.422;5.514;2022-12-10T02:39:33;0.00;99.90
24226;DHT22;51462;51.422;5.514;2022-12-10T02:42:02;0.10;99.90
24226;DHT22;51462;51.422;5.514;2022-12-10T02:44:30;-0.10;99.90
24226;DHT22;51462;51.422;5.514;2022-12-10T02:49:30;-0.10;99.90
24226;DHT22;51462;51.422;5.514;2022-12-10T02:51:56;0.00;99.90
24226;DHT22;51462;51.422;5.514;2022-12-10T02:54:41;0.00;99.90
24226;DHT22;51462;51.422;5.514;2022-12-10T02:57:33;0.30;99.90
24226;DHT22;51462;51.422;5.514;2022-12-10T03:08:15;0.70;99.90
24226;DHT22;51462;51.422;5.514;2022-12-10T03:11:12;0.60;99.90
24226;DHT22;51462;51.422;5.514;2022-12-10T03:16:25;0.40;99.90
24226;DHT22;51462;51.422;5.514;2022-12-10T03:18:57;0.30;99.90
24226;DHT22;51462;51.422;5.514;2022-12-10T03:21:26;0.00;99.90
24226;DHT22;51462;51.422;5.514;2022-12-10T03:23:53;0.10;99.90
24226;DHT22;51462;51.422;5.514;2022-12-10T03:26:20;0.20;99.90
24226;DHT22;51462;51.422;5.514;2022-12-10T03:28:59;0.30;99.90
24226;DHT22;51462;51.422;5.514;2022-12-10T03:31:27;0.60;99.90
24226;DHT22;51462;51.422;5.514;2022-12-10T03:33:53;0.60;99.90
24226;DHT22;51462;51.422;5.514;2022-12-10T03:36:20;0.30;99.90
24226;DHT22;51462;51.422;5.514;2022-12-10T03:38:46;0.10;99.90
24226;DHT22;51462;51.422;5.514;2022-12-10T03:41:12;0.00;99.90
24226;DHT22;51462;51.422;5.514;2022-12-10T03:43:58;-0.10;99.90
24226;DHT22;51462;51.422;5.514;2022-12-10T03:46:26;0.00;99.90
24226;DHT22;51462;51.422;5.514;2022-12-10T03:48:53;0.40;99.90
24226;DHT22;51462;51.422;5.514;2022-12-10T03:51:19;0.20;99.90
24226;DHT22;51462;51.422;5.514;2022-12-10T03:53:45;0.20;99.90
24226;DHT22;51462;51.422;5.514;2022-12-10T03:56:11;0.50;99.90
24226;DHT22;51462;51.422;5.514;2022-12-10T03:58:37;0.40;99.90
24226;DHT22;51462;51.422;5.514;2022-12-10T04:01:03;0.60;99.90
24226;DHT22;51462;51.422;5.514;2022-12-10T04:03:30;0.50;99.90
24226;DHT22;51462;51.422;5.514;2022-12-10T04:06:04;0.10;99.90
24226;DHT22;51462;51.422;5.514;2022-12-10T04:08:30;0.60;99.90
24226;DHT22;51462;51.422;5.514;2022-12-10T04:11:02;1.00;99.90
24226;DHT22;51462;51.422;5.514;2022-12-10T04:13:29;0.60;99.90
24226;DHT22;51462;51.422;5.514;2022-12-10T04:16:14;0.40;99.90
24226;DHT22;51462;51.422;5.514;2022-12-10T04:19:02;0.30;99.90
24226;DHT22;51462;51.422;5.514;2022-12-10T04:21:30;0.10;99.90
24226;DHT22;51462;51.422;5.514;2022-12-10T04:24:16;0.20;99.90
24226;DHT22;51462;51.422;5.514;2022-12-10T04:27:11;0.20;99.90
24226;DHT22;51462;51.422;5.514;2022-12-10T04:29:37;0.20;99.90
24226;DHT22;51462;51.422;5.514;2022-12-10T04:32:03;0.10;99.90
24226;DHT22;51462;51.422;5.514;2022-12-10T04:34:29;0.30;99.90
24226;DHT22;51462;51.422;5.514;2022-12-10T04:36:56;0.30;99.90
24226;DHT22;51462;51.422;5.514;2022-12-10T04:39:22;0.10;99.90
24226;DHT22;51462;51.422;5.514;2022-12-10T04:41:48;0.20;99.90
24226;DHT22;51462;51.422;5.514;2022-12-10T04:44:14;0.10;99.90
24226;DHT22;51462;51.422;5.514;2022-12-10T04:46:40;0.10;99.90
24226;DHT22;51462;51.422;5.514;2022-12-10T04:49:06;0.30;99.90
24226;DHT22;51462;51.422;5.514;2022-12-10T04:51:32;0.20;99.90
24226;DHT22;51462;51.422;5.514;2022-12-10T04:53:58;0.50;99.90
24226;DHT22;51462;51.422;5.514;2022-12-10T04:56:23;0.70;99.90
24226;DHT22;51462;51.422;5.514;2022-12-10T04:58:49;0.50;99.90
24226;DHT22;51462;51.422;5.514;2022-12-10T05:01:15;0.70;99.90
24226;DHT22;51462;51.422;5.514;2022-12-10T05:03:41;0.70;99.90
24226;DHT22;51462;51.422;5.514;2022-12-10T05:06:09;0.80;99.90
24226;DHT22;51462;51.422;5.514;2022-12-10T05:08:37;0.80;99.90
24226;DHT22;51462;51.422;5.514;2022-12-10T05:11:16;1.00;99.90
24226;DHT22;51462;51.422;5.514;2022-12-10T05:13:43;0.70;99.90
24226;DHT22;51462;51.422;5.514;2022-12-10T05:16:11;1.00;99.90
24226;DHT22;51462;51.422;5.514;2022-12-10T05:18:37;1.40;99.90
24226;DHT22;51462;51.422;5.514;2022-12-10T05:21:06;1.00;99.90
24226;DHT22;51462;51.422;5.514;2022-12-10T05:23:33;0.40;99.90
24226;DHT22;51462;51.422;5.514;2022-12-10T05:28:29;1.10;99.90
24226;DHT22;51462;51.422;5.514;2022-12-10T05:30:55;1.50;99.90
24226;DHT22;51462;51.422;5.514;2022-12-10T05:33:20;0.90;99.90
24226;DHT22;51462;51.422;5.514;2022-12-10T05:36:00;1.00;99.90
24226;DHT22;51462;51.422;5.514;2022-12-10T05:38:27;0.50;99.90
24226;DHT22;51462;51.422;5.514;2022-12-10T05:40:53;0.20;99.90
24226;DHT22;51462;51.422;5.514;2022-12-10T05:43:19;0.10;99.90
24226;DHT22;51462;51.422;5.514;2022-12-10T05:45:45;0.30;99.90
24226;DHT22;51462;51.422;5.514;2022-12-10T05:48:13;0.90;99.90
24226;DHT22;51462;51.422;5.514;2022-12-10T05:50:39;0.60;99.90
24226;DHT22;51462;51.422;5.514;2022-12-10T05:53:05;0.80;99.90
24226;DHT22;51462;51.422;5.514;2022-12-10T05:55:31;0.70;99.90
24226;DHT22;51462;51.422;5.514;2022-12-10T05:58:00;0.40;99.90
24226;DHT22;51462;51.422;5.514;2022-12-10T06:00:27;0.70;99.90
24226;DHT22;51462;51.422;5.514;2022-12-10T06:02:53;0.50;99.90
24226;DHT22;51462;51.422;5.514;2022-12-10T06:05:18;0.60;99.90
24226;DHT22;51462;51.422;5.514;2022-12-10T06:07:44;0.50;99.90
24226;DHT22;51462;51.422;5.514;2022-12-10T06:10:10;0.90;99.90
24226;DHT22;51462;51.422;5.514;2022-12-10T06:12:36;1.30;99.90
24226;DHT22;51462;51.422;5.514;2022-12-10T06:15:03;1.30;99.90
24226;DHT22;51462;51.422;5.514;2022-12-10T06:17:29;1.40;99.90
24226;DHT22;51462;51.422;5.514;2022-12-10T06:19:54;1.40;99.90
24226;DHT22;51462;51.422;5.514;2022-12-10T06:22:20;1.30;99.90
24226;DHT22;51462;51.422;5.514;2022-12-10T06:24:45;0.90;99.90
24226;DHT22;51462;51.422;5.514;2022-12-10T06:27:11;0.50;99.90
24226;DHT22;51462;51.422;5.514;2022-12-10T06:29:36;0.40;99.90
24226;DHT22;51462;51.422;5.514;2022-12-10T06:32:02;0.30;99.90
24226;DHT22;51462;51.422;5.514;2022-12-10T06:34:28;0.60;99.90
24226;DHT22;51462;51.422;5.514;2022-12-10T06:36:53;0.70;99.90
24226;DHT22;51462;51.422;5.514;2022-12-10T06:39:19;1.20;99.90
24226;DHT22;51462;51.422;5.514;2022-12-10T06:41:45;0.60;99.90
24226;DHT22;51462;51.422;5.514;2022-12-10T06:44:12;0.90;99.90
24226;DHT22;51462;51.422;5.514;2022-12-10T06:46:39;0.50;99.90
24226;DHT22;51462;51.422;5.514;2022-12-10T06:49:06;0.20;99.90
24226;DHT22;51462;51.422;5.514;2022-12-10T06:51:32;0.10;99.90
24226;DHT22;51462;51.422;5.514;2022-12-10T06:53:58;0.20;99.90
24226;DHT22;51462;51.422;5.514;2022-12-10T06:56:23;0.20;99.90
24226;DHT22;51462;51.422;5.514;2022-12-10T06:58:49;0.00;99.90
24226;DHT22;51462;51.422;5.514;2022-12-10T07:01:16;-0.10;99.90
24226;DHT22;51462;51.422;5.514;2022-12-10T07:03:50;0.20;99.90
24226;DHT22;51462;51.422;5.514;2022-12-10T07:06:17;0.20;99.90
24226;DHT22;51462;51.422;5.514;2022-12-10T07:08:42;0.70;99.90
24226;DHT22;51462;51.422;5.514;2022-12-10T07:11:13;0.90;99.90
24226;DHT22;51462;51.422;5.514;2022-12-10T07:13:39;1.00;99.90
24226;DHT22;51462;51.422;5.514;2022-12-10T07:16:22;0.70;99.90
24226;DHT22;51462;51.422;5.514;2022-12-10T07:18:49;0.70;99.90
24226;DHT22;51462;51.422;5.514;2022-12-10T07:21:25;0.70;99.90
24226;DHT22;51462;51.422;5.514;2022-12-10T07:23:53;1.10;99.90
24226;DHT22;51462;51.422;5.514;2022-12-10T07:26:20;1.60;99.90
24226;DHT22;51462;51.422;5.514;2022-12-10T07:28:46;1.50;99.90
24226;DHT22;51462;51.422;5.514;2022-12-10T07:31:11;1.50;99.90
24226;DHT22;51462;51.422;5.514;2022-12-10T07:33:37;1.40;99.90
24226;DHT22;51462;51.422;5.514;2022-12-10T07:36:08;1.40;99.90
24226;DHT22;51462;51.422;5.514;2022-12-10T07:38:34;0.90;99.90
24226;DHT22;51462;51.422;5.514;2022-12-10T07:41:08;0.70;99.90
24226;DHT22;51462;51.422;5.514;2022-12-10T07:43:35;0.30;99.90
24226;DHT22;51462;51.422;5.514;2022-12-10T07:46:13;1.30;99.90
24226;DHT22;51462;51.422;5.514;2022-12-10T07:48:41;0.60;99.90
24226;DHT22;51462;51.422;5.514;2022-12-10T07:51:07;0.60;99.90
24226;DHT22;51462;51.422;5.514;2022-12-10T07:53:33;0.50;99.90
24226;DHT22;51462;51.422;5.514;2022-12-10T07:55:59;0.10;99.90
24226;DHT22;51462;51.422;5.514;2022-12-10T07:58:25;0.20;99.90
24226;DHT22;51462;51.422;5.514;2022-12-10T08:00:51;0.30;99.90
24226;DHT22;51462;51.422;5.514;2022-12-10T08:03:17;0.20;99.90
24226;DHT22;51462;51.422;5.514;2022-12-10T08:05:42;0.50;99.90
24226;DHT22;51462;51.422;5.514;2022-12-10T08:08:08;0.20;99.90
24226;DHT22;51462;51.422;5.514;2022-12-10T08:10:34;0.80;99.90
24226;DHT22;51462;51.422;5.514;2022-12-10T08:13:00;0.90;99.90
24226;DHT22;51462;51.422;5.514;2022-12-10T08:15:26;0.70;99.90
24226;DHT22;51462;51.422;5.514;2022-12-10T08:17:53;0.60;99.90
24226;DHT22;51462;51.422;5.514;2022-12-10T08:20:19;0.90;99.90
24226;DHT22;51462;51.422;5.514;2022-12-10T08:22:44;1.20;99.90
24226;DHT22;51462;51.422;5.514;2022-12-10T08:25:10;1.30;99.90
24226;DHT22;51462;51.422;5.514;2022-12-10T08:27:36;1.10;99.90
24226;DHT22;51462;51.422;5.514;2022-12-10T08:30:02;1.00;99.90
24226;DHT22;51462;51.422;5.514;2022-12-10T08:32:27;1.60;99.90
24226;DHT22;51462;51.422;5.514;2022-12-10T08:34:53;1.20;99.90
24226;DHT22;51462;51.422;5.514;2022-12-10T08:37:18;0.80;99.90
24226;DHT22;51462;51.422;5.514;2022-12-10T08:39:44;0.80;99.90
24226;DHT22;51462;51.422;5.514;2022-12-10T08:42:10;0.60;99.90
24226;DHT22;51462;51.422;5.514;2022-12-10T08:44:35;0.70;99.90
24226;DHT22;51462;51.422;5.514;2022-12-10T08:47:01;0.30;99.90
24226;DHT22;51462;51.422;5.514;2022-12-10T08:49:26;0.40;99.90
24226;DHT22;51462;51.422;5.514;2022-12-10T08:51:52;0.20;99.90
24226;DHT22;51462;51.422;5.514;2022-12-10T08:54:17;0.20;99.90
24226;DHT22;51462;51.422;5.514;2022-12-10T08:56:43;0.40;99.90
24226;DHT22;51462;51.422;5.514;2022-12-10T08:59:08;0.40;99.90
24226;DHT22;51462;51.422;5.514;2022-12-10T09:01:34;0.40;99.90
24226;DHT22;51462;51.422;5.514;2022-12-10T09:04:00;0.80;99.90
24226;DHT22;51462;51.422;5.514;2022-12-10T09:06:27;1.10;99.90
24226;DHT22;51462;51.422;5.514;2022-12-10T09:08:53;1.10;99.90
24226;DHT22;51462;51.422;5.514;2022-12-10T09:11:25;1.10;99.90
24226;DHT22;51462;51.422;5.514;2022-12-10T09:13:51;1.30;99.90
24226;DHT22;51462;51.422;5.514;2022-12-10T09:16:17;1.20;99.90
24226;DHT22;51462;51.422;5.514;2022-12-10T09:18:43;1.10;99.90
24226;DHT22;51462;51.422;5.514;2022-12-10T09:21:12;0.50;99.90
24226;DHT22;51462;51.422;5.514;2022-12-10T09:23:39;0.60;99.90
24226;DHT22;51462;51.422;5.514;2022-12-10T09:26:06;0.30;99.90
24226;DHT22;51462;51.422;5.514;2022-12-10T09:28:32;0.50;99.90
24226;DHT22;51462;51.422;5.514;2022-12-10T09:30:59;0.70;99.90
24226;DHT22;51462;51.422;5.514;2022-12-10T09:33:26;0.50;99.90
24226;DHT22;51462;51.422;5.514;2022-12-10T09:35:52;1.80;99.90
24226;DHT22;51462;51.422;5.514;2022-12-10T09:38:18;1.60;99.90
24226;DHT22;51462;51.422;5.514;2022-12-10T09:40:49;1.20;99.90
24226;DHT22;51462;51.422;5.514;2022-12-10T09:46:19;1.60;99.90
24226;DHT22;51462;51.422;5.514;2022-12-10T09:51:23;1.40;99.90
24226;DHT22;51462;51.422;5.514;2022-12-10T09:53:52;1.90;99.90
24226;DHT22;51462;51.422;5.514;2022-12-10T09:56:32;2.20;99.90
24226;DHT22;51462;51.422;5.514;2022-12-10T09:59:03;2.10;99.90
24226;DHT22;51462;51.422;5.514;2022-12-10T10:01:33;1.40;99.90
24226;DHT22;51462;51.422;5.514;2022-12-10T10:03:59;1.70;99.90
24226;DHT22;51462;51.422;5.514;2022-12-10T10:06:26;1.10;99.90
24226;DHT22;51462;51.422;5.514;2022-12-10T10:08:55;1.60;99.90
24226;DHT22;51462;51.422;5.514;2022-12-10T10:11:28;2.90;99.90
24226;DHT22;51462;51.422;5.514;2022-12-10T10:17:02;2.20;99.90
24226;DHT22;51462;51.422;5.514;2022-12-10T10:19:31;1.40;99.90
24226;DHT22;51462;51.422;5.514;2022-12-10T10:22:03;0.90;99.90
24226;DHT22;51462;51.422;5.514;2022-12-10T10:24:41;1.20;99.90
24226;DHT22;51462;51.422;5.514;2022-12-10T10:27:14;1.60;99.90
24226;DHT22;51462;51.422;5.514;2022-12-10T10:29:42;1.60;99.90
24226;DHT22;51462;51.422;5.514;2022-12-10T10:32:51;1.40;99.90
24226;DHT22;51462;51.422;5.514;2022-12-10T10:38:06;1.50;99.90
24226;DHT22;51462;51.422;5.514;2022-12-10T10:40:53;1.30;99.90
24226;DHT22;51462;51.422;5.514;2022-12-10T10:43:34;1.50;99.90
24226;DHT22;51462;51.422;5.514;2022-12-10T10:46:16;1.50;99.90
24226;DHT22;51462;51.422;5.514;2022-12-10T10:48:43;1.30;99.90
24226;DHT22;51462;51.422;5.514;2022-12-10T10:53:54;1.30;99.90
24226;DHT22;51462;51.422;5.514;2022-12-10T10:56:25;1.60;99.90
24226;DHT22;51462;51.422;5.514;2022-12-10T10:59:02;1.30;99.90
24226;DHT22;51462;51.422;5.514;2022-12-10T11:01:52;1.10;99.90
24226;DHT22;51462;51.422;5.514;2022-12-10T11:04:29;1.40;99.90
24226;DHT22;51462;51.422;5.514;2022-12-10T11:07:00;0.80;99.90
24226;DHT22;51462;51.422;5.514;2022-12-10T11:09:32;1.20;99.90
24226;DHT22;51462;51.422;5.514;2022-12-10T11:12:01;0.80;99.90
24226;DHT22;51462;51.422;5.514;2022-12-10T11:14:39;1.90;99.90
24226;DHT22;51462;51.422;5.514;2022-12-10T11:19:42;1.60;99.90
24226;DHT22;51462;51.422;5.514;2022-12-10T11:22:31;1.50;99.90
24226;DHT22;51462;51.422;5.514;2022-12-10T11:24:57;1.40;99.90
24226;DHT22;51462;51.422;5.514;2022-12-10T11:30:25;1.10;99.90
24226;DHT22;51462;51.422;5.514;2022-12-10T11:33:14;1.00;99.90
24226;DHT22;51462;51.422;5.514;2022-12-10T11:36:17;1.10;99.90
24226;DHT22;51462;51.422;5.514;2022-12-10T11:49:37;1.50;99.90
24226;DHT22;51462;51.422;5.514;2022-12-10T11:55:21;1.00;99.90
24226;DHT22;51462;51.422;5.514;2022-12-10T12:08:56;1.70;99.90
24226;DHT22;51462;51.422;5.514;2022-12-10T12:14:07;1.50;99.90
24226;DHT22;51462;51.422;5.514;2022-12-10T12:16:44;1.30;99.90
24226;DHT22;51462;51.422;5.514;2022-12-10T12:19:18;1.00;99.90
24226;DHT22;51462;51.422;5.514;2022-12-10T12:21:47;1.30;99.90
24226;DHT22;51462;51.422;5.514;2022-12-10T12:24:33;1.30;99.90
24226;DHT22;51462;51.422;5.514;2022-12-10T12:27:18;1.50;99.90
24226;DHT22;51462;51.422;5.514;2022-12-10T12:32:55;1.80;99.90
24226;DHT22;51462;51.422;5.514;2022-12-10T12:35:42;1.50;99.90
24226;DHT22;51462;51.422;5.514;2022-12-10T12:38:28;1.60;99.90
24226;DHT22;51462;51.422;5.514;2022-12-10T12:44:04;1.40;99.90
24226;DHT22;51462;51.422;5.514;2022-12-10T12:46:43;1.10;99.90
24226;DHT22;51462;51.422;5.514;2022-12-10T12:52:02;1.30;99.90
24226;DHT22;51462;51.422;5.514;2022-12-10T12:54:29;1.10;99.90
24226;DHT22;51462;51.422;5.514;2022-12-10T13:00:09;1.00;99.90
24226;DHT22;51462;51.422;5.514;2022-12-10T13:05:35;1.50;99.90
24226;DHT22;51462;51.422;5.514;2022-12-10T13:10:52;1.20;99.90
24226;DHT22;51462;51.422;5.514;2022-12-10T13:15:53;1.50;99.90
24226;DHT22;51462;51.422;5.514;2022-12-10T13:18:33;1.50;99.90
24226;DHT22;51462;51.422;5.514;2022-12-10T13:21:28;1.30;99.90
24226;DHT22;51462;51.422;5.514;2022-12-10T13:24:10;1.60;99.90
24226;DHT22;51462;51.422;5.514;2022-12-10T13:26:36;1.50;99.90
24226;DHT22;51462;51.422;5.514;2022-12-10T13:29:24;1.50;99.90
24226;DHT22;51462;51.422;5.514;2022-12-10T13:32:18;1.80;99.90
24226;DHT22;51462;51.422;5.514;2022-12-10T13:34:45;1.80;99.90
24226;DHT22;51462;51.422;5.514;2022-12-10T13:42:38;1.90;99.90
24226;DHT22;51462;51.422;5.514;2022-12-10T13:45:24;1.90;99.90
24226;DHT22;51462;51.422;5.514;2022-12-10T13:47:54;1.70;99.90
24226;DHT22;51462;51.422;5.514;2022-12-10T13:55:40;2.10;99.90
24226;DHT22;51462;51.422;5.514;2022-12-10T14:06:21;2.00;99.90
24226;DHT22;51462;51.422;5.514;2022-12-10T14:11:46;1.40;99.90
24226;DHT22;51462;51.422;5.514;2022-12-10T14:14:20;1.90;99.90
24226;DHT22;51462;51.422;5.514;2022-12-10T14:16:48;1.90;99.90
24226;DHT22;51462;51.422;5.514;2022-12-10T14:19:16;2.00;99.90
24226;DHT22;51462;51.422;5.514;2022-12-10T14:21:43;1.80;99.90
24226;DHT22;51462;51.422;5.514;2022-12-10T14:24:33;1.60;99.90
24226;DHT22;51462;51.422;5.514;2022-12-10T14:27:13;1.50;99.90
24226;DHT22;51462;51.422;5.514;2022-12-10T14:29:47;1.50;99.90
24226;DHT22;51462;51.422;5.514;2022-12-10T14:32:15;1.40;99.90
24226;DHT22;51462;51.422;5.514;2022-12-10T14:34:43;1.60;99.90
24226;DHT22;51462;51.422;5.514;2022-12-10T14:37:13;2.00;99.90
24226;DHT22;51462;51.422;5.514;2022-12-10T14:39:40;2.10;99.90
24226;DHT22;51462;51.422;5.514;2022-12-10T14:42:06;1.90;99.90
24226;DHT22;51462;51.422;5.514;2022-12-10T14:44:36;1.80;99.90
24226;DHT22;51462;51.422;5.514;2022-12-10T14:47:15;1.30;99.90
24226;DHT22;51462;51.422;5.514;2022-12-10T14:49:43;1.20;99.90
24226;DHT22;51462;51.422;5.514;2022-12-10T14:52:15;1.20;99.90
24226;DHT22;51462;51.422;5.514;2022-12-10T14:54:41;1.20;99.90
24226;DHT22;51462;51.422;5.514;2022-12-10T14:57:18;1.10;99.90
24226;DHT22;51462;51.422;5.514;2022-12-10T14:59:47;1.10;99.90
24226;DHT22;51462;51.422;5.514;2022-12-10T15:02:21;1.20;99.90
24226;DHT22;51462;51.422;5.514;2022-12-10T15:04:48;1.90;99.90
24226;DHT22;51462;51.422;5.514;2022-12-10T15:07:18;1.30;99.90
24226;DHT22;51462;51.422;5.514;2022-12-10T15:09:46;1.40;99.90
24226;DHT22;51462;51.422;5.514;2022-12-10T15:12:29;1.40;99.90
24226;DHT22;51462;51.422;5.514;2022-12-10T15:15:16;1.10;99.90
24226;DHT22;51462;51.422;5.514;2022-12-10T15:20:37;1.60;99.90
24226;DHT22;51462;51.422;5.514;2022-12-10T15:23:30;1.80;99.90
24226;DHT22;51462;51.422;5.514;2022-12-10T15:26:00;1.30;99.90
24226;DHT22;51462;51.422;5.514;2022-12-10T15:28:29;1.70;99.90
24226;DHT22;51462;51.422;5.514;2022-12-10T15:31:41;1.40;99.90
24226;DHT22;51462;51.422;5.514;2022-12-10T15:33:48;1.30;99.90
24226;DHT22;51462;51.422;5.514;2022-12-10T15:38:49;1.60;99.90
24226;DHT22;51462;51.422;5.514;2022-12-10T15:41:51;1.20;99.90
24226;DHT22;51462;51.422;5.514;2022-12-10T15:49:43;1.30;99.90
24226;DHT22;51462;51.422;5.514;2022-12-10T15:52:16;1.40;99.90
24226;DHT22;51462;51.422;5.514;2022-12-10T15:54:44;1.30;99.90
24226;DHT22;51462;51.422;5.514;2022-12-10T15:59:41;1.10;99.90
24226;DHT22;51462;51.422;5.514;2022-12-10T16:04:51;1.10;99.90
24226;DHT22;51462;51.422;5.514;2022-12-10T16:07:17;1.30;99.90
24226;DHT22;51462;51.422;5.514;2022-12-10T16:09:43;1.70;99.90
24226;DHT22;51462;51.422;5.514;2022-12-10T16:12:14;1.30;99.90
24226;DHT22;51462;51.422;5.514;2022-12-10T16:14:47;1.80;99.90
24226;DHT22;51462;51.422;5.514;2022-12-10T16:17:13;1.50;99.90
24226;DHT22;51462;51.422;5.514;2022-12-10T16:19:39;1.40;99.90
24226;DHT22;51462;51.422;5.514;2022-12-10T16:22:05;1.40;99.90
24226;DHT22;51462;51.422;5.514;2022-12-10T16:24:30;1.50;99.90
24226;DHT22;51462;51.422;5.514;2022-12-10T16:26:56;1.10;99.90
24226;DHT22;51462;51.422;5.514;2022-12-10T16:29:22;0.90;99.90
24226;DHT22;51462;51.422;5.514;2022-12-10T16:31:49;0.90;99.90
24226;DHT22;51462;51.422;5.514;2022-12-10T16:34:14;1.10;99.90
24226;DHT22;51462;51.422;5.514;2022-12-10T16:36:40;1.00;99.90
24226;DHT22;51462;51.422;5.514;2022-12-10T16:39:06;1.50;99.90
24226;DHT22;51462;51.422;5.514;2022-12-10T16:41:32;1.70;99.90
24226;DHT22;51462;51.422;5.514;2022-12-10T16:43:58;1.20;99.90
24226;DHT22;51462;51.422;5.514;2022-12-10T16:46:23;1.20;99.90
24226;DHT22;51462;51.422;5.514;2022-12-10T16:48:49;0.90;99.90
24226;DHT22;51462;51.422;5.514;2022-12-10T16:51:20;0.90;99.90
24226;DHT22;51462;51.422;5.514;2022-12-10T16:53:47;0.90;99.90
24226;DHT22;51462;51.422;5.514;2022-12-10T16:56:14;1.00;99.90
24226;DHT22;51462;51.422;5.514;2022-12-10T16:58:40;0.90;99.90
24226;DHT22;51462;51.422;5.514;2022-12-10T17:01:21;0.80;99.90
24226;DHT22;51462;51.422;5.514;2022-12-10T17:03:48;1.00;99.90
24226;DHT22;51462;51.422;5.514;2022-12-10T17:06:14;0.90;99.90
24226;DHT22;51462;51.422;5.514;2022-12-10T17:08:40;1.00;99.90
24226;DHT22;51462;51.422;5.514;2022-12-10T17:11:14;0.90;99.90
24226;DHT22;51462;51.422;5.514;2022-12-10T17:13:59;0.80;99.90
24226;DHT22;51462;51.422;5.514;2022-12-10T17:16:24;0.60;99.90
24226;DHT22;51462;51.422;5.514;2022-12-10T17:18:50;0.90;99.90
24226;DHT22;51462;51.422;5.514;2022-12-10T17:21:16;0.90;99.90
24226;DHT22;51462;51.422;5.514;2022-12-10T17:23:41;0.70;99.90
24226;DHT22;51462;51.422;5.514;2022-12-10T17:26:08;1.00;99.90
24226;DHT22;51462;51.422;5.514;2022-12-10T17:28:36;1.10;99.90
24226;DHT22;51462;51.422;5.514;2022-12-10T17:31:01;1.30;99.90
24226;DHT22;51462;51.422;5.514;2022-12-10T17:33:27;1.40;99.90
24226;DHT22;51462;51.422;5.514;2022-12-10T17:35:52;1.30;99.90
24226;DHT22;51462;51.422;5.514;2022-12-10T17:38:24;1.10;99.90
24226;DHT22;51462;51.422;5.514;2022-12-10T17:40:51;1.50;99.90
24226;DHT22;51462;51.422;5.514;2022-12-10T17:43:17;1.30;99.90
24226;DHT22;51462;51.422;5.514;2022-12-10T17:45:44;1.00;99.90
24226;DHT22;51462;51.422;5.514;2022-12-10T17:48:13;0.90;99.90
24226;DHT22;51462;51.422;5.514;2022-12-10T17:50:39;1.20;99.90
24226;DHT22;51462;51.422;5.514;2022-12-10T17:53:06;2.00;99.90
24226;DHT22;51462;51.422;5.514;2022-12-10T17:55:39;1.80;99.90
24226;DHT22;51462;51.422;5.514;2022-12-10T17:58:05;2.10;99.90
24226;DHT22;51462;51.422;5.514;2022-12-10T18:00:34;2.30;99.90
24226;DHT22;51462;51.422;5.514;2022-12-10T18:03:00;1.90;99.90
24226;DHT22;51462;51.422;5.514;2022-12-10T18:05:26;1.80;99.90
24226;DHT22;51462;51.422;5.514;2022-12-10T18:07:52;1.60;99.90
24226;DHT22;51462;51.422;5.514;2022-12-10T18:10:24;1.50;99.90
24226;DHT22;51462;51.422;5.514;2022-12-10T18:12:49;1.60;99.90
24226;DHT22;51462;51.422;5.514;2022-12-10T18:15:16;1.60;99.90
24226;DHT22;51462;51.422;5.514;2022-12-10T18:17:43;1.80;99.90